Terminal Aerodrome Forecast
Issued by NWS Wichita, KS

Home | Current Version | Previous Version | Text Only | Print | Product List | Glossary Off
Versions: 1 2 3 4 5 6 7 8 9 10 11 12 13 14 15 16 17 18 19 20

000
FTUS43 KICT 190939 AAD
TAFICT
TAF AMD
KICT 190939Z 1910/2006 17008KT 1SM BR SCT250
      TEMPO 1910/1912 1/2SM FG
     FM191200 16010KT 2SM BR OVC006
      TEMPO 1912/1914 1/2SM FG
     FM191800 17012KT P6SM OVC012=

USA.gov is the U.S. government's official web portal to all federal, state and local government web resources and services.